Pangborn Memorial Airport
KEAT : now visible

Airfield :











YOU CAN JOIN US ON...

 
LOGIN :

Register | Disclaimer

   EN    FR    IT 

 









Legend :    VFR   Marginal VFR   IFR   Intensive IFR   Very Intensive IFR
Visi :
Ceiling :
>= 8 km
>= 3000ft
5 to 8 km
1000 to 3000 ft
1500m to 5 km
500 to 1000 ft
800 to 1500m
200 to 500 ft
< 800m
< 200 ft
Symbols :   Thunderstorms  Fog  Heavy snow  Heavy precipitations  Wind > 20 kt






- Airport Elevation : 1249 ft


KEAT - Pangborn Memorial

CURRENT METAR :
  • 080655Z AUTO 28007KT 10SM OVC009 03/01 A2980 RMK AO2 SLP101 T00280011

EXPIRED METARs :
  • 080643Z AUTO 28006KT 10SM OVC009 03/01 A2980 RMK AO2 T00330011
  • 080555Z AUTO 28005KT 10SM OVC010 03/01 A2979 RMK AO2 SLP096 T00330011 10039 20028 51005
  • 080455Z AUTO 27004KT 10SM OVC012 03/01 A2979 RMK AO2 SLP095 T00280011

TAF KEAT
Valid from the 08 at 06:00 until the 09 at 06:00 UTC


080520Z 0806/0906 31002KT P6SM OVC012
FM080900 32003KT 1SM BR OVC007
FM081700 30003KT P6SM OVC015
FM081900 30003KT P6SM SCT015



MET'MAP, your aeronautical weather chart ! - Copyright ORBIFLY December 2007 - Disclaimer

ORBIFLY MET'MAP TEAM :

Programming & Development : Alexandra Zaïnal
Concept & original design : Baudouin d'Aumeries
Assistance for programming : Marc-Olivier Méhu
Technical & hardware support : Manuel Goepfert

Contact : metmap@orbifly.com




SOURCES & CREDITS :

   NOAA       Earth
Advisory